createdAt,value
2022-08-14T00:00:19.387Z,8.40
2022-08-14T00:02:47.972Z,9.00
2022-08-14T00:05:15.956Z,7.20
2022-08-14T00:07:43.613Z,9.20
2022-08-14T00:10:50.073Z,8.80
2022-08-14T00:13:06.874Z,4.80
2022-08-14T00:15:43.403Z,6.40
2022-08-14T00:18:14.374Z,9.00
2022-08-14T00:20:42.943Z,9.00
2022-08-14T00:23:14.604Z,5.20
2022-08-14T00:25:54.077Z,9.60
2022-08-14T00:28:34.990Z,9.00
2022-08-14T00:31:03.756Z,6.00
2022-08-14T00:33:50.645Z,8.00
2022-08-14T00:36:35.797Z,9.00
2022-08-14T00:39:09.435Z,10.00
2022-08-14T00:41:39.231Z,8.00
2022-08-14T00:44:06.994Z,9.40
2022-08-14T00:46:35.890Z,10.00
2022-08-14T00:49:04.060Z,9.00
2022-08-14T00:51:37.691Z,10.80
2022-08-14T00:54:16.881Z,8.00
2022-08-14T00:56:49.298Z,6.80
2022-08-14T00:59:16.903Z,9.00
2022-08-14T01:01:45.077Z,10.80
2022-08-14T01:04:37.301Z,8.00
2022-08-14T01:07:04.860Z,8.60
2022-08-14T01:09:36.705Z,5.20
2022-08-14T01:12:04.510Z,6.00
2022-08-14T01:14:32.237Z,8.80
2022-08-14T01:17:00.035Z,9.00
2022-08-14T01:19:48.743Z,8.00
2022-08-14T01:22:19.218Z,7.60
2022-08-14T01:24:47.325Z,8.20
2022-08-14T01:27:15.011Z,8.00
2022-08-14T01:30:00.840Z,5.00
2022-08-14T01:32:30.445Z,7.00
2022-08-14T01:35:19.976Z,8.80
2022-08-14T01:37:54.581Z,7.60
2022-08-14T01:40:25.671Z,11.00
2022-08-14T01:43:02.748Z,7.80
2022-08-14T01:45:31.328Z,7.60
2022-08-14T01:48:13.714Z,7.40
2022-08-14T01:50:42.081Z,9.20
2022-08-14T01:53:09.779Z,9.00
2022-08-14T01:55:40.524Z,8.00
2022-08-14T01:58:20.400Z,8.60
2022-08-14T02:00:53.119Z,10.60
2022-08-14T02:03:21.229Z,8.00
2022-08-14T02:05:49.767Z,11.00
2022-08-14T02:08:22.303Z,8.80
2022-08-14T02:11:24.178Z,8.00
2022-08-14T02:13:52.395Z,8.00
2022-08-14T02:16:22.266Z,7.00
2022-08-14T02:18:50.602Z,7.80
2022-08-14T02:21:19.511Z,8.60
2022-08-14T02:23:53.515Z,10.80
2022-08-14T02:26:24.812Z,4.20
2022-08-14T02:28:58.167Z,9.20
2022-08-14T02:31:42.135Z,8.00
2022-08-14T02:34:11.305Z,8.40
2022-08-14T02:37:03.574Z,10.80
2022-08-14T02:39:34.897Z,9.20
2022-08-14T02:42:04.529Z,12.25
2022-08-14T02:44:32.293Z,9.60
2022-08-14T02:47:08.480Z,11.00
2022-08-14T02:49:43.201Z,9.60
2022-08-14T02:52:55.623Z,7.20
2022-08-14T02:54:58.715Z,11.00
2022-08-14T02:57:40.439Z,10.80
2022-08-14T03:00:09.864Z,8.00
2022-08-14T03:02:56.073Z,8.00
2022-08-14T03:05:26.556Z,9.60
2022-08-14T03:07:54.509Z,9.20
2022-08-14T03:10:27.653Z,11.40
2022-08-14T03:13:00.698Z,10.20
2022-08-14T03:15:28.423Z,10.20
2022-08-14T03:17:58.374Z,11.80
2022-08-14T03:20:26.213Z,10.00
2022-08-14T03:22:53.922Z,4.25
2022-08-14T03:25:23.271Z,9.25
2022-08-14T03:27:58.655Z,11.00
2022-08-14T03:30:39.834Z,8.00
2022-08-14T03:33:10.306Z,10.25
2022-08-14T03:36:00.425Z,13.00
2022-08-14T03:39:13.666Z,10.50
2022-08-14T03:41:14.730Z,10.00
2022-08-14T03:43:42.373Z,9.50
2022-08-14T03:46:39.132Z,10.75
2022-08-14T03:49:03.104Z,10.50
2022-08-14T03:51:31.363Z,5.00
2022-08-14T03:53:59.878Z,6.75
2022-08-14T03:56:27.783Z,11.00
2022-08-14T03:58:55.805Z,10.75
2022-08-14T04:01:29.321Z,10.25
2022-08-14T04:04:09.907Z,10.50
2022-08-14T04:06:42.586Z,10.25
2022-08-14T04:09:15.425Z,9.50
2022-08-14T04:11:45.442Z,8.00
2022-08-14T04:14:15.378Z,10.50
2022-08-14T04:16:48.296Z,10.75
2022-08-14T04:19:17.590Z,7.00
2022-08-14T04:22:02.104Z,11.00
2022-08-14T04:24:37.659Z,7.50
2022-08-14T04:27:06.415Z,8.00
2022-08-14T04:29:38.385Z,13.00
2022-08-14T04:32:58.211Z,10.75
2022-08-14T04:34:53.762Z,11.00
2022-08-14T04:37:40.868Z,10.25
2022-08-14T04:40:27.745Z,9.00
2022-08-14T04:43:14.334Z,10.00
2022-08-14T04:45:51.160Z,11.00
2022-08-14T04:48:39.838Z,11.25
2022-08-14T04:51:08.735Z,10.50
2022-08-14T04:53:42.880Z,10.00
2022-08-14T04:56:31.664Z,11.25
2022-08-14T04:58:58.945Z,10.25
2022-08-14T05:01:39.984Z,6.50
2022-08-14T05:04:08.552Z,10.00
2022-08-14T05:06:38.043Z,10.50
2022-08-14T05:09:07.326Z,9.00
2022-08-14T05:11:41.538Z,10.00
2022-08-14T05:14:16.795Z,11.00
2022-08-14T05:17:01.854Z,7.75
2022-08-14T05:19:31.879Z,12.00
2022-08-14T05:22:15.576Z,11.50
2022-08-14T05:24:45.845Z,11.00
2022-08-14T05:27:22.207Z,10.00
2022-08-14T05:29:51.453Z,10.00
2022-08-14T05:32:19.620Z,10.00
2022-08-14T05:34:47.805Z,11.00
2022-08-14T05:37:15.703Z,8.20
2022-08-14T05:39:43.497Z,11.00
2022-08-14T05:42:21.505Z,10.40
2022-08-14T05:44:49.629Z,11.00
2022-08-14T05:47:21.771Z,10.20
2022-08-14T05:49:49.449Z,8.80
2022-08-14T05:52:18.120Z,10.80
2022-08-14T05:54:47.024Z,8.20
2022-08-14T05:57:15.100Z,8.60
2022-08-14T05:59:43.943Z,9.00
2022-08-14T06:02:11.557Z,11.80
2022-08-14T06:04:39.669Z,11.80
2022-08-14T06:07:07.406Z,7.20
2022-08-14T06:09:40.536Z,11.60
2022-08-14T06:12:08.667Z,12.20
2022-08-14T06:14:36.689Z,12.60
2022-08-14T06:17:04.582Z,11.20
2022-08-14T06:19:32.188Z,11.60
2022-08-14T06:21:59.926Z,12.00
2022-08-14T06:24:30.482Z,8.20
2022-08-14T06:27:03.854Z,13.00
2022-08-14T06:29:33.529Z,12.00
2022-08-14T06:32:36.950Z,11.60
2022-08-14T06:35:10.706Z,10.00
2022-08-14T06:37:38.815Z,11.20
2022-08-14T06:40:25.429Z,10.60
2022-08-14T06:42:55.840Z,7.40
2022-08-14T06:45:26.311Z,13.20
2022-08-14T06:47:54.836Z,12.00
2022-08-14T06:50:27.710Z,9.80
2022-08-14T06:52:56.011Z,12.20
2022-08-14T06:55:28.266Z,10.40
2022-08-14T06:57:57.671Z,10.00
2022-08-14T07:00:26.985Z,11.20
2022-08-14T07:03:15.296Z,11.20
2022-08-14T07:05:58.040Z,14.20
2022-08-14T07:08:29.843Z,11.00
2022-08-14T07:10:59.689Z,11.00
2022-08-14T07:13:27.789Z,10.20
2022-08-14T07:15:56.261Z,13.20
2022-08-14T07:18:26.149Z,11.80
2022-08-14T07:20:53.844Z,11.20
2022-08-14T07:23:24.045Z,10.80
2022-08-14T07:25:53.167Z,12.00
2022-08-14T07:28:21.566Z,14.20
2022-08-14T07:30:50.480Z,12.00
2022-08-14T07:33:20.671Z,10.20
2022-08-14T07:35:58.363Z,9.00
2022-08-14T07:38:35.879Z,10.80
2022-08-14T07:41:11.808Z,12.40
2022-08-14T07:43:42.685Z,8.00
2022-08-14T07:46:11.797Z,12.00
2022-08-14T07:48:40.066Z,9.20
2022-08-14T07:51:10.954Z,12.00
2022-08-14T07:53:40.655Z,12.60
2022-08-14T07:56:44.140Z,7.00
2022-08-14T07:58:58.757Z,9.00
2022-08-14T08:01:26.744Z,9.20
2022-08-14T08:04:00.193Z,10.80
2022-08-14T08:06:28.982Z,11.80
2022-08-14T08:08:58.732Z,12.60
2022-08-14T08:11:34.979Z,11.40
2022-08-14T08:14:06.326Z,10.80
2022-08-14T08:16:39.155Z,11.80
2022-08-14T08:19:14.013Z,11.40
2022-08-14T08:21:43.892Z,11.20
2022-08-14T08:24:19.902Z,11.20
2022-08-14T08:26:50.322Z,9.00
2022-08-14T08:29:18.581Z,13.60
2022-08-14T08:31:52.067Z,11.80
2022-08-14T08:34:20.422Z,11.00
2022-08-14T08:36:52.648Z,13.00
2022-08-14T08:39:22.561Z,13.80
2022-08-14T08:41:53.784Z,11.40
2022-08-14T08:44:31.575Z,9.80
2022-08-14T08:47:05.787Z,10.00
2022-08-14T08:49:36.375Z,11.00
2022-08-14T08:52:24.443Z,12.40
2022-08-14T08:54:53.593Z,10.60
2022-08-14T08:57:21.953Z,12.20
2022-08-14T08:59:54.057Z,10.00
2022-08-14T09:02:36.793Z,11.40
2022-08-14T09:05:04.920Z,8.00
2022-08-14T09:07:32.581Z,10.80
2022-08-14T09:10:01.682Z,11.80
2022-08-14T09:12:31.615Z,10.20
2022-08-14T09:15:00.497Z,11.20
2022-08-14T09:17:28.226Z,10.00
2022-08-14T09:19:56.026Z,11.00
2022-08-14T09:22:35.405Z,11.40
2022-08-14T09:25:06.888Z,11.60
2022-08-14T09:27:35.200Z,10.80
2022-08-14T09:30:31.264Z,11.20
2022-08-14T09:32:59.200Z,9.80
2022-08-14T09:35:27.864Z,11.20
2022-08-14T09:37:56.509Z,11.60
2022-08-14T09:40:24.676Z,11.00
2022-08-14T09:42:57.203Z,10.80
2022-08-14T09:45:25.154Z,11.60
2022-08-14T09:47:58.223Z,11.00
2022-08-14T09:50:28.193Z,9.20
2022-08-14T09:52:56.950Z,10.20
2022-08-14T09:55:26.285Z,9.00
2022-08-14T09:57:55.665Z,9.20
2022-08-14T10:00:29.189Z,10.00
2022-08-14T10:03:05.278Z,9.60
2022-08-14T10:05:34.381Z,9.00
2022-08-14T10:08:06.217Z,10.00
2022-08-14T10:10:43.559Z,10.60
2022-08-14T10:13:19.570Z,9.00
2022-08-14T10:15:48.578Z,11.00
2022-08-14T10:18:19.139Z,9.20
2022-08-14T10:20:49.831Z,10.00
2022-08-14T10:23:18.152Z,6.80
2022-08-14T10:25:46.609Z,10.00
2022-08-14T10:28:51.550Z,10.40
2022-08-14T10:31:03.502Z,10.00
2022-08-14T10:33:32.164Z,8.40
2022-08-14T10:36:00.928Z,10.00
2022-08-14T10:38:32.063Z,8.00
2022-08-14T10:41:02.187Z,9.00
2022-08-14T10:43:32.150Z,9.40
2022-08-14T10:46:22.041Z,8.60
2022-08-14T10:48:52.283Z,8.60
2022-08-14T10:51:22.648Z,10.20
2022-08-14T10:53:55.732Z,8.00
2022-08-14T10:56:32.220Z,8.60
2022-08-14T10:59:02.511Z,10.40
2022-08-14T11:01:30.701Z,9.00
2022-08-14T11:04:00.667Z,8.00
2022-08-14T11:06:29.002Z,9.60
2022-08-14T11:08:56.770Z,9.20
2022-08-14T11:11:25.438Z,10.00
2022-08-14T11:14:04.092Z,10.20
2022-08-14T11:16:31.914Z,8.00
2022-08-14T11:19:00.094Z,5.80
2022-08-14T11:21:30.321Z,6.60
2022-08-14T11:24:02.240Z,10.00
2022-08-14T11:26:49.919Z,8.40
2022-08-14T11:29:22.065Z,8.00
2022-08-14T11:31:52.383Z,8.60
2022-08-14T11:34:32.228Z,8.00
2022-08-14T11:37:09.711Z,8.80
2022-08-14T11:39:51.169Z,9.60
2022-08-14T11:42:56.608Z,8.60
2022-08-14T11:45:11.327Z,8.80
2022-08-14T11:48:12.687Z,8.00
2022-08-14T11:50:36.870Z,7.80
2022-08-14T11:53:05.807Z,9.20
2022-08-14T11:55:35.156Z,9.80
2022-08-14T11:58:03.506Z,8.20
2022-08-14T12:00:38.192Z,8.40
2022-08-14T12:03:08.058Z,8.20
2022-08-14T12:05:39.873Z,5.00
2022-08-14T12:08:13.416Z,8.00
2022-08-14T12:10:42.760Z,6.60
2022-08-14T12:13:10.980Z,8.60
2022-08-14T12:15:44.753Z,6.60
2022-08-14T12:18:19.726Z,8.40
2022-08-14T12:20:52.638Z,9.00
2022-08-14T12:23:21.022Z,7.00
2022-08-14T12:26:01.370Z,10.20
2022-08-14T12:28:59.664Z,10.20
2022-08-14T12:31:26.941Z,9.60
2022-08-14T12:33:55.141Z,9.00
2022-08-14T12:36:22.769Z,9.00
2022-08-14T12:38:54.263Z,6.20
2022-08-14T12:41:22.172Z,8.20
2022-08-14T12:43:59.926Z,8.80
2022-08-14T12:46:28.652Z,10.60
2022-08-14T12:48:56.748Z,5.80
2022-08-14T12:51:27.330Z,8.80
2022-08-14T12:53:59.253Z,9.00
2022-08-14T12:56:33.479Z,6.80
2022-08-14T12:59:02.061Z,8.00
2022-08-14T13:01:31.209Z,7.80
2022-08-14T13:03:59.238Z,8.00
2022-08-14T13:06:33.321Z,8.20
2022-08-14T13:09:01.827Z,5.80
2022-08-14T13:11:31.181Z,8.80
2022-08-14T13:13:59.584Z,8.00
2022-08-14T13:16:37.758Z,8.00
2022-08-14T13:19:06.204Z,7.80
2022-08-14T13:22:05.011Z,6.00
2022-08-14T13:24:27.636Z,4.00
2022-08-14T13:26:57.022Z,7.20
2022-08-14T13:29:24.707Z,7.80
2022-08-14T13:31:53.724Z,8.00
2022-08-14T13:34:22.802Z,8.00
2022-08-14T13:36:59.425Z,6.60
2022-08-14T13:39:36.121Z,6.20
2022-08-14T13:42:10.871Z,8.00
2022-08-14T13:44:39.786Z,7.20
2022-08-14T13:47:10.959Z,5.00
2022-08-14T13:49:40.284Z,6.20
2022-08-14T13:52:59.498Z,6.20
2022-08-14T13:55:13.569Z,7.00
2022-08-14T13:57:49.676Z,7.00
2022-08-14T14:00:21.770Z,8.20
2022-08-14T14:03:01.006Z,7.00
2022-08-14T14:05:53.022Z,5.80
2022-08-14T14:08:18.827Z,3.00
2022-08-14T14:11:04.017Z,6.00
2022-08-14T14:13:32.168Z,6.00
2022-08-14T14:16:02.491Z,6.00
2022-08-14T14:18:34.776Z,6.40
2022-08-14T14:21:02.913Z,8.00
2022-08-14T14:23:32.497Z,5.00
2022-08-14T14:26:00.384Z,6.00
2022-08-14T14:28:28.041Z,6.00
2022-08-14T14:31:01.206Z,7.00
2022-08-14T14:33:49.046Z,8.60
2022-08-14T14:36:21.280Z,6.60
2022-08-14T14:38:49.924Z,7.00
2022-08-14T14:41:18.907Z,7.00
2022-08-14T14:43:48.145Z,3.00
2022-08-14T14:46:19.515Z,6.40
2022-08-14T14:48:54.162Z,6.20
2022-08-14T14:51:22.558Z,6.20
2022-08-14T14:53:50.263Z,6.40
2022-08-14T14:56:52.123Z,5.80
2022-08-14T14:59:05.848Z,5.00
2022-08-14T15:01:33.605Z,4.80
2022-08-14T15:04:04.067Z,4.60
2022-08-14T15:06:35.675Z,6.00
2022-08-14T15:09:04.765Z,4.00
2022-08-14T15:11:36.617Z,5.00
2022-08-14T15:14:55.588Z,5.00
2022-08-14T15:16:53.900Z,4.80
2022-08-14T15:19:27.009Z,5.20
2022-08-14T15:21:56.028Z,6.20
2022-08-14T15:24:26.552Z,6.60
2022-08-14T15:26:57.243Z,6.20
2022-08-14T15:29:26.461Z,3.00
2022-08-14T15:31:54.141Z,6.00
2022-08-14T15:34:43.046Z,5.80
2022-08-14T15:37:12.883Z,4.60
2022-08-14T15:39:44.385Z,4.20
2022-08-14T15:42:16.266Z,4.20
2022-08-14T15:44:57.935Z,4.20
2022-08-14T15:47:29.777Z,5.00
2022-08-14T15:49:59.334Z,3.20
2022-08-14T15:52:32.730Z,5.00
2022-08-14T15:55:03.653Z,2.20
2022-08-14T15:57:32.557Z,3.60
2022-08-14T16:00:40.172Z,4.80
2022-08-14T16:03:16.517Z,6.00
2022-08-14T16:05:45.971Z,5.00
2022-08-14T16:08:27.051Z,4.20
2022-08-14T16:10:58.317Z,5.00
2022-08-14T16:13:42.004Z,5.00
2022-08-14T16:16:47.405Z,5.40
2022-08-14T16:18:59.067Z,5.00
2022-08-14T16:21:31.669Z,4.20
2022-08-14T16:23:59.675Z,5.60
2022-08-14T16:26:30.033Z,4.00
2022-08-14T16:29:02.797Z,5.80
2022-08-14T16:31:36.225Z,4.00
2022-08-14T16:34:46.784Z,7.00
2022-08-14T16:36:51.810Z,5.60
2022-08-14T16:39:19.773Z,6.00
2022-08-14T16:41:50.968Z,5.00
2022-08-14T16:44:31.783Z,5.40
2022-08-14T16:47:01.724Z,5.20
2022-08-14T16:50:03.525Z,5.20
2022-08-14T16:52:26.008Z,6.00
2022-08-14T16:55:06.784Z,6.80
2022-08-14T16:57:35.216Z,4.40
2022-08-14T17:00:07.018Z,5.60
2022-08-14T17:02:35.491Z,6.20
2022-08-14T17:05:03.289Z,5.00
2022-08-14T17:07:31.756Z,6.00
2022-08-14T17:10:09.904Z,7.80
2022-08-14T17:12:40.862Z,7.00
2022-08-14T17:15:11.249Z,6.00
2022-08-14T17:17:43.256Z,5.00
2022-08-14T17:20:52.921Z,5.20
2022-08-14T17:22:59.065Z,4.40
2022-08-14T17:25:30.079Z,5.00
2022-08-14T17:27:57.949Z,3.80
2022-08-14T17:30:32.604Z,4.00
2022-08-14T17:33:07.041Z,5.00
2022-08-14T17:35:58.159Z,2.20
2022-08-14T17:38:38.298Z,6.00
2022-08-14T17:41:22.178Z,6.00
2022-08-14T17:43:54.777Z,5.20
2022-08-14T17:46:24.521Z,5.00
2022-08-14T17:49:16.056Z,5.00
2022-08-14T17:51:41.367Z,5.00
2022-08-14T17:54:34.490Z,6.00
2022-08-14T17:57:03.022Z,3.00
2022-08-14T17:59:41.758Z,6.00
2022-08-14T18:02:09.481Z,6.60
2022-08-14T18:04:44.283Z,6.00
2022-08-14T18:07:50.569Z,6.00
2022-08-14T18:09:59.971Z,6.00
2022-08-14T18:12:47.580Z,5.40
2022-08-14T18:15:17.590Z,5.00
2022-08-14T18:17:45.644Z,5.00
2022-08-14T18:21:41.042Z,4.00
2022-08-14T18:23:10.428Z,4.80
2022-08-14T18:25:40.871Z,5.00
2022-08-14T18:28:16.299Z,5.20
2022-08-14T18:30:58.645Z,6.00
2022-08-14T18:33:26.745Z,5.40
2022-08-14T18:36:46.338Z,6.00
2022-08-14T18:39:00.048Z,5.00
2022-08-14T18:41:37.309Z,5.00
2022-08-14T18:44:10.671Z,5.00
2022-08-14T18:47:00.605Z,4.60
2022-08-14T18:49:26.686Z,6.20
2022-08-14T18:52:01.823Z,5.20
2022-08-14T18:54:29.711Z,5.00
2022-08-14T18:56:58.487Z,3.40
2022-08-14T18:59:26.741Z,4.40
2022-08-14T19:01:56.245Z,4.00
2022-08-14T19:04:24.158Z,4.60
2022-08-14T19:06:56.024Z,6.20
2022-08-14T19:09:25.051Z,5.20
2022-08-14T19:11:54.146Z,4.00
2022-08-14T19:14:25.831Z,4.40
2022-08-14T19:16:54.731Z,5.20
2022-08-14T19:19:24.193Z,7.00
2022-08-14T19:21:51.892Z,5.00
2022-08-14T19:24:27.396Z,5.60
2022-08-14T19:26:58.168Z,5.00
2022-08-14T19:29:37.813Z,4.00
2022-08-14T19:32:08.133Z,5.00
2022-08-14T19:34:37.452Z,7.00
2022-08-14T19:37:09.840Z,5.00
2022-08-14T19:39:42.618Z,5.00
2022-08-14T19:42:14.461Z,5.00
2022-08-14T19:44:56.473Z,7.00
2022-08-14T19:47:25.474Z,3.20
2022-08-14T19:50:30.188Z,6.20
2022-08-14T19:52:57.269Z,4.40
2022-08-14T19:55:34.337Z,5.20
2022-08-14T19:58:05.108Z,5.80
2022-08-14T20:00:33.121Z,5.00
2022-08-14T20:03:10.603Z,7.00
2022-08-14T20:05:42.887Z,6.40
2022-08-14T20:10:58.747Z,6.00
2022-08-14T20:11:20.746Z,1.00
2022-08-14T20:13:50.459Z,4.00
2022-08-14T20:16:31.844Z,5.80
2022-08-14T20:19:00.140Z,4.60
2022-08-14T20:21:34.421Z,6.00
2022-08-14T20:24:02.856Z,5.40
2022-08-14T20:26:36.764Z,7.00
2022-08-14T20:29:07.110Z,7.00
2022-08-14T20:31:36.900Z,6.20
2022-08-14T20:34:06.147Z,7.20
2022-08-14T20:36:34.121Z,6.40
2022-08-14T20:39:04.062Z,7.00
2022-08-14T20:41:33.426Z,6.00
2022-08-14T20:44:20.739Z,7.00
2022-08-14T20:46:50.027Z,6.40
2022-08-14T20:49:21.440Z,3.00
2022-08-14T20:51:58.370Z,6.40
2022-08-14T20:54:34.673Z,7.00
2022-08-14T20:57:05.018Z,7.00
2022-08-14T20:59:33.493Z,7.60
2022-08-14T21:02:01.216Z,6.20
2022-08-14T21:04:48.951Z,8.00
2022-08-14T21:07:25.146Z,6.00
2022-08-14T21:10:33.743Z,6.00
2022-08-14T21:13:26.185Z,7.20
2022-08-14T21:15:41.588Z,9.00
2022-08-14T21:18:09.912Z,6.60
2022-08-14T21:20:38.106Z,7.00
2022-08-14T21:23:07.490Z,6.20
2022-08-14T21:25:35.111Z,7.00
2022-08-14T21:28:04.021Z,6.00
2022-08-14T21:30:41.846Z,7.80
2022-08-14T21:33:21.574Z,9.20
2022-08-14T21:35:49.744Z,2.40
2022-08-14T21:38:33.705Z,3.00
2022-08-14T21:41:02.736Z,5.00
2022-08-14T21:43:50.425Z,6.40
2022-08-14T21:46:19.712Z,9.00
2022-08-14T21:48:47.437Z,6.00
2022-08-14T21:51:53.577Z,7.80
2022-08-14T21:54:32.204Z,5.00
2022-08-14T21:56:57.909Z,6.00
2022-08-14T21:59:29.213Z,6.60
2022-08-14T22:02:01.832Z,6.60
2022-08-14T22:04:33.243Z,6.80
2022-08-14T22:07:02.477Z,6.60
2022-08-14T22:09:32.571Z,3.80
2022-08-14T22:12:06.878Z,6.20
2022-08-14T22:14:43.599Z,6.00
2022-08-14T22:17:13.035Z,6.20
2022-08-14T22:19:54.463Z,6.80
2022-08-14T22:22:23.074Z,6.00
2022-08-14T22:24:53.434Z,6.20
2022-08-14T22:27:27.631Z,6.40
2022-08-14T22:29:58.630Z,6.80
2022-08-14T22:32:56.029Z,6.40
2022-08-14T22:35:14.059Z,4.80
2022-08-14T22:37:44.845Z,5.40
2022-08-14T22:40:17.599Z,6.40
2022-08-14T22:43:08.183Z,6.00
2022-08-14T22:45:37.982Z,6.00
2022-08-14T22:48:10.788Z,4.60
2022-08-14T22:50:48.721Z,6.00
2022-08-14T22:53:16.761Z,5.60
2022-08-14T22:55:47.803Z,4.60
2022-08-14T22:58:20.559Z,6.80
2022-08-14T23:01:01.586Z,7.00
2022-08-14T23:03:34.213Z,5.00
2022-08-14T23:06:03.378Z,5.60
2022-08-14T23:09:01.991Z,6.80
2022-08-14T23:11:38.704Z,8.00
2022-08-14T23:14:07.079Z,6.00
2022-08-14T23:16:40.045Z,5.00
2022-08-14T23:19:11.196Z,6.20
2022-08-14T23:21:38.816Z,5.60
2022-08-14T23:24:14.435Z,6.00
2022-08-14T23:26:48.737Z,5.80
2022-08-14T23:29:18.695Z,8.00
2022-08-14T23:31:46.377Z,6.00
2022-08-14T23:34:20.809Z,6.00
2022-08-14T23:36:54.397Z,5.00
2022-08-14T23:39:24.569Z,9.00
2022-08-14T23:41:57.052Z,4.80
2022-08-14T23:44:30.609Z,8.20
2022-08-14T23:47:00.723Z,6.00
2022-08-14T23:49:56.944Z,8.00
2022-08-14T23:53:07.364Z,7.60
2022-08-14T23:55:11.356Z,6.00
2022-08-14T23:57:44.030Z,6.00
